createdAt,value
2022-08-07T00:00:26.921Z,13.45
2022-08-07T00:02:58.010Z,12.40
2022-08-07T00:05:26.569Z,12.40
2022-08-07T00:07:58.245Z,12.10
2022-08-07T00:10:30.992Z,12.15
2022-08-07T00:13:09.734Z,12.00
2022-08-07T00:15:51.512Z,12.20
2022-08-07T00:18:23.857Z,12.40
2022-08-07T00:21:01.395Z,12.10
2022-08-07T00:23:31.015Z,11.57
2022-08-07T00:26:06.852Z,11.80
2022-08-07T00:28:45.725Z,11.40
2022-08-07T00:31:21.398Z,10.95
2022-08-07T00:33:50.145Z,11.32
2022-08-07T00:36:17.634Z,11.55
2022-08-07T00:38:45.136Z,11.38
2022-08-07T00:41:14.976Z,11.90
2022-08-07T00:43:59.418Z,12.85
2022-08-07T00:46:33.127Z,11.38
2022-08-07T00:49:03.348Z,11.57
2022-08-07T00:51:56.895Z,11.82
2022-08-07T00:54:19.764Z,11.57
2022-08-07T00:56:49.840Z,11.73
2022-08-07T00:59:20.232Z,12.18
2022-08-07T01:02:03.004Z,11.98
2022-08-07T01:04:35.511Z,11.80
2022-08-07T01:07:11.022Z,11.95
2022-08-07T01:10:06.372Z,11.25
2022-08-07T01:12:30.221Z,11.30
2022-08-07T01:15:03.735Z,11.75
2022-08-07T01:17:33.348Z,11.98
2022-08-07T01:20:10.359Z,12.40
2022-08-07T01:23:00.858Z,12.13
2022-08-07T01:25:54.613Z,12.02
2022-08-07T01:28:23.064Z,12.10
2022-08-07T01:30:56.066Z,11.57
2022-08-07T01:33:30.162Z,11.32
2022-08-07T01:36:16.775Z,11.43
2022-08-07T01:38:46.481Z,10.30
2022-08-07T01:41:26.368Z,10.30
2022-08-07T01:43:59.305Z,10.82
2022-08-07T01:46:31.535Z,11.45
2022-08-07T01:48:59.993Z,10.45
2022-08-07T01:52:03.503Z,10.25
2022-08-07T01:54:36.392Z,9.82
2022-08-07T01:57:24.738Z,10.48
2022-08-07T02:00:13.690Z,10.02
2022-08-07T02:03:19.159Z,10.70
2022-08-07T02:06:30.768Z,11.27
2022-08-07T02:08:54.365Z,10.82
2022-08-07T02:11:30.922Z,11.10
2022-08-07T02:14:35.774Z,11.73
2022-08-07T02:17:03.735Z,11.63
2022-08-07T02:20:07.525Z,12.30
2022-08-07T02:22:25.950Z,11.82
2022-08-07T02:24:56.332Z,11.30
2022-08-07T02:27:26.442Z,12.25
2022-08-07T02:30:07.165Z,12.35
2022-08-07T02:32:39.491Z,12.18
2022-08-07T02:36:30.864Z,12.57
2022-08-07T02:38:18.291Z,11.70
2022-08-07T02:40:55.526Z,11.48
2022-08-07T02:46:00.576Z,9.98
2022-08-07T02:48:32.592Z,10.50
2022-08-07T02:51:28.830Z,10.15
2022-08-07T02:54:03.761Z,10.98
2022-08-07T02:56:34.394Z,10.80
2022-08-07T02:59:06.226Z,10.38
2022-08-07T03:01:39.992Z,10.40
2022-08-07T03:04:14.800Z,10.18
2022-08-07T03:06:48.262Z,9.13
2022-08-07T03:09:43.233Z,8.98
2022-08-07T03:12:21.604Z,8.80
2022-08-07T03:14:56.513Z,8.38
2022-08-07T03:17:25.414Z,7.90
2022-08-07T03:19:55.786Z,7.85
2022-08-07T03:22:30.182Z,6.93
2022-08-07T03:25:00.424Z,6.95
2022-08-07T03:28:09.012Z,7.57
2022-08-07T03:30:24.290Z,6.60
2022-08-07T03:32:58.639Z,6.80
2022-08-07T03:35:43.610Z,7.30
2022-08-07T03:38:21.174Z,7.07
2022-08-07T03:40:57.622Z,6.30
2022-08-07T03:43:32.444Z,6.72
2022-08-07T03:46:03.867Z,6.32
2022-08-07T03:48:45.537Z,6.18
2022-08-07T03:51:47.941Z,6.67
2022-08-07T03:58:34.862Z,6.18
2022-08-07T04:00:01.858Z,6.22
2022-08-07T04:02:32.523Z,6.40
2022-08-07T04:05:00.275Z,5.97
2022-08-07T04:07:36.220Z,6.15
2022-08-07T04:10:15.749Z,6.00
2022-08-07T04:12:49.524Z,5.38
2022-08-07T04:15:19.169Z,5.13
2022-08-07T04:18:57.425Z,4.85
2022-08-07T04:20:35.440Z,4.78
2022-08-07T04:23:06.210Z,4.22
2022-08-07T04:25:40.968Z,4.57
2022-08-07T04:28:13.303Z,4.82
2022-08-07T04:30:55.101Z,4.63
2022-08-07T04:33:29.066Z,4.30
2022-08-07T04:35:58.877Z,4.40
2022-08-07T04:38:29.307Z,4.65
2022-08-07T04:40:58.722Z,4.45
2022-08-07T04:44:10.604Z,4.20
2022-08-07T04:47:04.338Z,3.78
2022-08-07T04:49:57.720Z,3.95
2022-08-07T04:52:40.382Z,3.72
2022-08-07T04:58:31.499Z,4.10
2022-08-07T05:01:30.288Z,4.15
2022-08-07T05:04:18.016Z,3.92
2022-08-07T05:07:20.292Z,4.25
2022-08-07T05:10:01.294Z,3.67
2022-08-07T05:14:45.705Z,3.85
2022-08-07T05:15:53.918Z,3.95
2022-08-07T05:18:37.033Z,3.27
2022-08-07T05:21:10.064Z,3.17
2022-08-07T05:23:52.352Z,3.08
2022-08-07T05:26:23.717Z,3.30
2022-08-07T05:29:04.608Z,3.28
2022-08-07T05:31:38.908Z,2.95
2022-08-07T05:34:16.214Z,2.80
2022-08-07T05:36:52.967Z,2.92
2022-08-07T05:40:06.773Z,3.15
2022-08-07T05:42:33.287Z,2.83
2022-08-07T05:45:14.424Z,2.85
2022-08-07T05:48:01.090Z,2.50
2022-08-07T05:50:39.336Z,2.67
2022-08-07T05:54:09.508Z,2.67
2022-08-07T05:56:03.263Z,2.70
2022-08-07T05:58:40.941Z,2.85
2022-08-07T06:01:18.701Z,2.55
2022-08-07T06:03:58.827Z,2.30
2022-08-07T06:06:35.762Z,1.90
2022-08-07T06:09:06.889Z,2.10
2022-08-07T06:11:39.951Z,2.15
2022-08-07T06:14:12.047Z,1.90
2022-08-07T06:16:56.408Z,1.80
2022-08-07T06:19:52.391Z,1.33
2022-08-07T06:22:24.027Z,2.00
2022-08-07T06:25:10.305Z,1.70
2022-08-07T06:28:00.007Z,1.98
2022-08-07T06:30:36.115Z,1.90
2022-08-07T06:33:16.129Z,1.75
2022-08-07T06:36:06.264Z,1.90
2022-08-07T06:38:35.167Z,1.90
2022-08-07T06:41:13.134Z,1.88
2022-08-07T06:43:59.406Z,1.80
2022-08-07T06:46:35.510Z,1.80
2022-08-07T06:49:05.638Z,1.80
2022-08-07T06:51:49.540Z,1.90
2022-08-07T06:55:32.194Z,1.70
2022-08-07T06:57:13.829Z,1.60
2022-08-07T07:00:12.200Z,1.85
2022-08-07T07:02:48.568Z,1.83
2022-08-07T07:06:03.730Z,2.00
2022-08-07T07:08:12.289Z,2.00
2022-08-07T07:10:47.494Z,1.88
2022-08-07T07:13:56.727Z,1.90
2022-08-07T07:16:22.390Z,1.80
2022-08-07T07:19:34.123Z,1.98
2022-08-07T07:22:04.812Z,1.60
2022-08-07T07:24:43.148Z,1.80
2022-08-07T07:27:28.011Z,2.05
2022-08-07T07:30:09.814Z,1.80
2022-08-07T07:32:42.667Z,2.22
2022-08-07T07:35:12.661Z,2.00
2022-08-07T07:37:56.169Z,2.30
2022-08-07T07:40:32.548Z,2.10
2022-08-07T07:43:15.168Z,2.28
2022-08-07T07:46:50.447Z,2.10
2022-08-07T07:51:08.032Z,1.85
2022-08-07T07:53:48.163Z,2.00
2022-08-07T07:56:30.103Z,2.00
2022-08-07T07:59:05.862Z,2.05
2022-08-07T08:02:02.947Z,2.08
2022-08-07T08:04:27.786Z,2.20
2022-08-07T08:06:56.401Z,1.80
2022-08-07T08:09:30.020Z,2.00
2022-08-07T08:12:02.413Z,1.80
2022-08-07T08:14:34.508Z,1.70
2022-08-07T08:17:55.497Z,1.60
2022-08-07T08:20:17.859Z,1.67
2022-08-07T08:23:12.286Z,1.80
2022-08-07T08:26:07.025Z,1.70
2022-08-07T08:28:43.472Z,1.80
2022-08-07T08:31:22.963Z,1.80
2022-08-07T08:34:12.407Z,1.70
2022-08-07T08:36:41.190Z,1.80
2022-08-07T08:39:15.361Z,2.17
2022-08-07T08:42:06.455Z,2.30
2022-08-07T08:45:04.310Z,2.17
2022-08-07T08:47:47.284Z,2.20
2022-08-07T08:50:35.242Z,1.92
2022-08-07T08:53:30.739Z,2.22
2022-08-07T08:56:03.355Z,2.40
2022-08-07T08:58:40.879Z,2.17
2022-08-07T09:01:30.028Z,2.42
2022-08-07T09:04:28.656Z,2.43
2022-08-07T09:07:04.059Z,2.30
2022-08-07T09:09:47.380Z,2.20
2022-08-07T09:12:53.479Z,2.00
2022-08-07T09:16:23.468Z,2.25
2022-08-07T09:18:36.867Z,2.33
2022-08-07T09:22:09.948Z,2.10
2022-08-07T09:28:00.585Z,2.20
2022-08-07T09:31:08.569Z,1.95
2022-08-07T09:33:57.323Z,2.70
2022-08-07T09:36:49.812Z,2.50
2022-08-07T09:39:54.869Z,2.15
2022-08-07T09:42:41.135Z,2.30
2022-08-07T09:47:25.943Z,2.58
2022-08-07T09:48:30.148Z,3.15
2022-08-07T09:51:04.189Z,3.35
2022-08-07T09:53:50.118Z,4.03
2022-08-07T09:56:53.929Z,2.72
2022-08-07T10:00:01.007Z,2.80
2022-08-07T10:04:05.372Z,3.05
2022-08-07T10:06:42.679Z,3.03
2022-08-07T10:09:59.088Z,3.10
2022-08-07T10:13:03.619Z,2.85
2022-08-07T10:15:49.192Z,3.28
2022-08-07T10:18:20.524Z,3.40
2022-08-07T10:21:50.567Z,3.28
2022-08-07T10:24:10.162Z,2.85
2022-08-07T10:26:54.458Z,2.90
2022-08-07T10:29:43.338Z,3.25
2022-08-07T10:32:52.849Z,3.28
2022-08-07T10:35:55.159Z,3.40
2022-08-07T10:38:41.967Z,3.17
2022-08-07T10:41:53.812Z,3.03
2022-08-07T10:45:00.085Z,3.22
2022-08-07T10:47:52.797Z,2.83
2022-08-07T10:50:26.605Z,3.10
2022-08-07T10:53:22.587Z,3.08
2022-08-07T10:56:21.035Z,3.35
2022-08-07T10:59:24.341Z,3.60
2022-08-07T11:02:12.526Z,3.65
2022-08-07T11:04:58.316Z,3.83
2022-08-07T11:07:59.609Z,4.40
2022-08-07T11:10:41.064Z,3.85
2022-08-07T11:14:42.449Z,3.22
2022-08-07T11:16:19.546Z,3.38
2022-08-07T11:18:54.723Z,3.40
2022-08-07T11:21:42.966Z,3.00
2022-08-07T11:24:13.454Z,3.05
2022-08-07T11:27:01.218Z,3.22
2022-08-07T11:30:18.673Z,3.30
2022-08-07T11:32:46.520Z,4.00
2022-08-07T11:35:26.820Z,4.57
2022-08-07T11:38:42.769Z,4.85
2022-08-07T11:41:59.995Z,4.10
2022-08-07T11:44:37.925Z,3.97
2022-08-07T11:47:56.238Z,5.18
2022-08-07T11:50:57.298Z,4.78
2022-08-07T11:53:25.523Z,4.95
2022-08-07T11:56:27.287Z,4.20
2022-08-07T12:00:11.262Z,3.95
2022-08-07T12:02:34.337Z,3.85
2022-08-07T12:05:47.328Z,3.72
2022-08-07T12:08:31.813Z,4.63
2022-08-07T12:11:22.878Z,4.95
2022-08-07T12:14:02.096Z,4.68
2022-08-07T12:16:34.554Z,3.72
2022-08-07T12:19:21.640Z,4.20
2022-08-07T12:22:39.467Z,4.32
2022-08-07T12:26:05.351Z,4.20
2022-08-07T12:28:53.136Z,3.95
2022-08-07T12:32:01.645Z,5.43
2022-08-07T12:34:39.113Z,4.30
2022-08-07T12:37:16.440Z,4.70
2022-08-07T12:39:52.703Z,4.32
2022-08-07T12:42:27.628Z,4.00
2022-08-07T12:45:05.711Z,4.25
2022-08-07T12:47:56.059Z,4.35
2022-08-07T12:50:55.974Z,4.03
2022-08-07T12:54:37.479Z,4.85
2022-08-07T12:56:51.492Z,4.30
2022-08-07T12:59:53.913Z,4.30
2022-08-07T13:02:42.298Z,4.30
2022-08-07T13:06:03.087Z,4.35
2022-08-07T13:08:57.833Z,4.78
2022-08-07T13:12:03.544Z,4.47
2022-08-07T13:14:52.915Z,4.70
2022-08-07T13:17:39.943Z,4.60
2022-08-07T13:20:46.701Z,4.68
2022-08-07T13:24:00.661Z,5.43
2022-08-07T13:26:26.497Z,5.43
2022-08-07T13:29:04.436Z,5.50
2022-08-07T13:31:46.283Z,5.68
2022-08-07T13:35:12.849Z,5.55
2022-08-07T13:38:02.873Z,6.25
2022-08-07T13:41:17.106Z,7.78
2022-08-07T13:43:52.542Z,6.85
2022-08-07T13:46:33.360Z,6.85
2022-08-07T13:49:04.405Z,7.32
2022-08-07T13:52:05.294Z,6.88
2022-08-07T13:54:33.412Z,8.30
2022-08-07T13:57:05.108Z,7.90
2022-08-07T13:59:39.654Z,8.60
2022-08-07T14:02:13.105Z,8.43
2022-08-07T14:05:20.920Z,8.25
2022-08-07T14:07:59.672Z,8.48
2022-08-07T14:10:42.155Z,8.13
2022-08-07T14:13:18.015Z,9.20
2022-08-07T14:15:56.851Z,9.00
2022-08-07T14:18:39.015Z,9.55
2022-08-07T14:22:04.181Z,10.52
2022-08-07T14:24:27.152Z,10.18
2022-08-07T14:27:00.328Z,10.23
2022-08-07T14:30:05.759Z,9.55
2022-08-07T14:32:24.906Z,10.07
2022-08-07T14:34:55.487Z,10.43
2022-08-07T14:37:36.435Z,10.30
2022-08-07T14:45:59.763Z,14.60
2022-08-07T14:48:37.493Z,10.40
2022-08-07T14:54:30.129Z,10.35
2022-08-07T14:56:50.695Z,10.30
2022-08-07T15:00:04.588Z,10.23
2022-08-07T15:02:31.777Z,10.37
2022-08-07T15:05:03.703Z,10.57
2022-08-07T15:07:47.615Z,10.07
2022-08-07T15:10:25.100Z,10.13
2022-08-07T15:13:06.276Z,9.55
2022-08-07T15:15:53.684Z,8.68
2022-08-07T15:18:33.816Z,9.30
2022-08-07T15:21:44.888Z,9.63
2022-08-07T15:25:15.650Z,9.45
2022-08-07T15:26:57.838Z,9.40
2022-08-07T15:30:06.525Z,10.07
2022-08-07T15:32:39.021Z,9.57
2022-08-07T15:35:16.863Z,9.57
2022-08-07T15:38:17.829Z,9.82
2022-08-07T15:41:00.144Z,10.32
2022-08-07T15:43:53.028Z,9.80
2022-08-07T15:46:31.699Z,9.68
2022-08-07T15:49:19.508Z,10.05
2022-08-07T15:54:39.718Z,10.65
2022-08-07T15:57:28.358Z,9.65
2022-08-07T16:00:04.306Z,10.02
2022-08-07T16:05:15.204Z,10.40
2022-08-07T16:08:30.265Z,10.85
2022-08-07T16:10:41.773Z,10.38
2022-08-07T16:13:58.524Z,10.32
2022-08-07T16:16:49.373Z,10.43
2022-08-07T16:19:59.822Z,10.10
2022-08-07T16:22:36.345Z,11.38
2022-08-07T16:25:52.414Z,10.50
2022-08-07T16:29:18.882Z,11.35
2022-08-07T16:31:51.239Z,10.35
2022-08-07T16:34:23.847Z,10.77
2022-08-07T16:38:03.036Z,10.95
2022-08-07T16:40:28.959Z,10.68
2022-08-07T16:44:03.674Z,11.90
2022-08-07T16:50:28.507Z,11.48
2022-08-07T16:54:02.907Z,11.63
2022-08-07T16:56:32.319Z,11.55
2022-08-07T16:59:18.927Z,11.30
2022-08-07T17:02:05.595Z,10.40
2022-08-07T17:06:01.577Z,12.27
2022-08-07T17:08:02.099Z,11.93
2022-08-07T17:10:54.734Z,13.00
2022-08-07T17:14:19.529Z,12.82
2022-08-07T17:16:58.070Z,12.13
2022-08-07T17:20:03.061Z,13.13
2022-08-07T17:22:56.728Z,12.68
2022-08-07T17:25:47.184Z,12.57
2022-08-07T17:28:31.559Z,12.40
2022-08-07T17:31:16.675Z,12.50
2022-08-07T17:34:32.813Z,12.65
2022-08-07T17:37:08.936Z,13.13
2022-08-07T17:40:03.412Z,13.23
2022-08-07T17:42:36.245Z,13.63
2022-08-07T17:45:57.464Z,14.60
2022-08-07T17:48:34.485Z,14.15
2022-08-07T17:51:23.089Z,13.55
2022-08-07T17:54:39.632Z,13.13
2022-08-07T17:57:21.493Z,13.10
2022-08-07T18:00:00.550Z,13.07
2022-08-07T18:02:36.827Z,12.18
2022-08-07T18:05:21.974Z,12.48
2022-08-07T18:08:03.734Z,12.32
2022-08-07T18:11:53.660Z,12.40
2022-08-07T18:13:48.730Z,11.88
2022-08-07T18:16:37.166Z,13.30
2022-08-07T18:21:10.312Z,13.15
2022-08-07T18:22:49.097Z,11.70
2022-08-07T18:25:40.737Z,11.55
2022-08-07T18:28:35.283Z,11.13
2022-08-07T18:31:50.363Z,11.38
2022-08-07T18:34:40.794Z,11.23
2022-08-07T18:38:56.625Z,11.13
2022-08-07T18:41:07.963Z,11.20
2022-08-07T18:43:57.575Z,12.00
2022-08-07T18:46:51.581Z,12.65
2022-08-07T18:50:31.092Z,12.48
2022-08-07T18:53:12.578Z,12.70
2022-08-07T18:56:15.033Z,13.45
2022-08-07T18:58:51.633Z,14.32
2022-08-07T19:02:20.166Z,15.30
2022-08-07T19:04:39.784Z,14.88
2022-08-07T19:07:52.972Z,13.13
2022-08-07T19:10:49.968Z,15.85
2022-08-07T19:13:44.344Z,15.30
2022-08-07T19:17:06.041Z,15.23
2022-08-07T19:19:48.832Z,15.77
2022-08-07T19:22:32.348Z,16.92
2022-08-07T19:25:06.778Z,18.38
2022-08-07T19:28:29.593Z,19.73
2022-08-07T19:31:00.216Z,17.95
2022-08-07T19:33:33.625Z,16.33
2022-08-07T19:36:04.368Z,15.77
2022-08-07T19:38:52.559Z,17.02
2022-08-07T19:41:44.345Z,16.92
2022-08-07T19:44:21.275Z,14.48
2022-08-07T19:46:58.018Z,15.30
2022-08-07T19:49:57.368Z,14.57
2022-08-07T19:52:27.790Z,16.05
2022-08-07T19:54:58.404Z,16.38
2022-08-07T19:58:01.299Z,15.27
2022-08-07T20:00:39.303Z,15.27
2022-08-07T20:03:33.554Z,15.77
2022-08-07T20:06:06.126Z,15.63
2022-08-07T20:08:37.978Z,17.30
2022-08-07T20:11:10.724Z,18.05
2022-08-07T20:13:56.638Z,17.63
2022-08-07T20:16:35.125Z,19.13
2022-08-07T20:19:11.111Z,19.67
2022-08-07T20:21:47.181Z,16.92
2022-08-07T20:24:22.130Z,16.52
2022-08-07T20:26:54.773Z,16.63
2022-08-07T20:29:49.234Z,15.60
2022-08-07T20:32:39.779Z,16.40
2022-08-07T20:35:12.955Z,16.77
2022-08-07T20:37:59.789Z,16.45
2022-08-07T20:40:37.648Z,16.33
2022-08-07T20:43:19.520Z,15.60
2022-08-07T20:46:28.848Z,16.98
2022-08-07T20:49:54.694Z,17.58
2022-08-07T20:51:35.945Z,16.38
2022-08-07T20:54:15.160Z,16.02
2022-08-07T20:57:04.892Z,16.42
2022-08-07T21:00:07.319Z,16.70
2022-08-07T21:02:53.836Z,16.80
2022-08-07T21:05:47.841Z,16.48
2022-08-07T21:08:15.519Z,17.02
2022-08-07T21:10:44.963Z,17.20
2022-08-07T21:13:19.393Z,16.98
2022-08-07T21:16:00.152Z,16.35
2022-08-07T21:18:33.929Z,17.85
2022-08-07T21:23:50.423Z,15.90
2022-08-07T21:26:27.414Z,16.58
2022-08-07T21:29:06.348Z,15.25
2022-08-07T21:32:47.763Z,15.98
2022-08-07T21:34:59.520Z,15.82
2022-08-07T21:37:58.346Z,15.45
2022-08-07T21:40:59.255Z,16.67
2022-08-07T21:44:28.362Z,16.13
2022-08-07T21:47:03.277Z,16.98
2022-08-07T21:50:01.057Z,17.23
2022-08-07T21:52:43.953Z,17.08
2022-08-07T21:55:28.161Z,16.88
2022-08-07T21:58:08.413Z,15.73
2022-08-07T22:00:47.581Z,15.15
2022-08-07T22:03:42.921Z,15.82
2022-08-07T22:06:30.285Z,15.75
2022-08-07T22:09:31.504Z,14.73
2022-08-07T22:12:16.152Z,16.52
2022-08-07T22:14:59.838Z,16.05
2022-08-07T22:17:36.107Z,15.35
2022-08-07T22:20:30.413Z,16.05
2022-08-07T22:23:21.519Z,17.17
2022-08-07T22:26:12.132Z,17.23
2022-08-07T22:29:09.017Z,16.75
2022-08-07T22:34:53.122Z,16.48
2022-08-07T22:38:01.967Z,17.23
2022-08-07T22:40:45.011Z,16.90
2022-08-07T22:43:18.087Z,17.10
2022-08-07T22:46:40.725Z,16.70
2022-08-07T22:49:19.577Z,16.77
2022-08-07T22:52:07.986Z,16.30
2022-08-07T22:55:23.139Z,16.17
2022-08-07T22:58:25.013Z,15.75
2022-08-07T23:01:07.264Z,15.80
2022-08-07T23:04:00.221Z,15.25
2022-08-07T23:07:01.563Z,15.15
2022-08-07T23:10:04.036Z,15.18
2022-08-07T23:12:39.288Z,15.07
2022-08-07T23:16:04.253Z,15.10
2022-08-07T23:18:32.048Z,15.70
2022-08-07T23:21:29.872Z,15.13
2022-08-07T23:24:06.329Z,14.43
2022-08-07T23:27:07.883Z,15.35
2022-08-07T23:30:38.934Z,14.73
2022-08-07T23:34:35.023Z,15.02
2022-08-07T23:36:07.080Z,15.10
2022-08-07T23:38:47.100Z,14.98
2022-08-07T23:42:01.398Z,14.82
2022-08-07T23:44:49.378Z,14.70
2022-08-07T23:47:46.422Z,15.00
2022-08-07T23:50:34.933Z,14.98
2022-08-07T23:53:15.311Z,15.23
2022-08-07T23:56:11.765Z,14.35
2022-08-07T23:59:10.567Z,15.25
